Jaen, Spain

8:18 AM CEST on August 22, 2014 (GMT +0200)
Ranal | Change Station
CLOSE
Current Station
Personal Weather Station
Location: Torredelcampo, ANDALUCíA
Elevation: 2136 ft
Nearby Weather Stations

Elev 2136 ft 37.77 °N, 3.90 °W | Updated 1 second ago

Clear
Clear
66.2 °F
Feels Like 66.2 °F
N
2.6
Wind Variable Wind from WSW
Gusts 6.0 mph

Today
High -- | Low -- °F
--% Chance of Precip.
Yesterday
High -- | Low -- °F
Precip. -- in
7:36 AM 8:59 PM
Waning Crescent, 10% visible
Pressure 30.04 in
Visibility -9999.0 miles
Clouds
Dew Point 50 °F
Humidity 55%
Rainfall 0.00 in
Snow Depth Not available.
UV 0.0 out of 12
Pollen Not available.
Air Quality Not available.
Flu Activity Not available.
METAR LEGR 220600Z 00000KT CAVOK 13/09 Q1017

More Conditions Fewer Conditions

Pressure 30.04 in
Visibility -9999.0 miles
Clouds
Dew Point 50 °F
Humidity 55%
Rainfall 0.00 in
Snow Depth Not available.
UV 0.0 out of 12
Pollen Not available.
Air Quality Not available.
Flu Activity Not available.
METAR LEGR 220600Z 00000KT CAVOK 13/09 Q1017

More Conditions Fewer Conditions

10-Day Weather Forecast

Almanac

Astronomy

Aug. 22, 2014 Rise Set
Actual Time 7:36 AM CEST 8:59 PM CEST
Civil Twilight 7:09 AM CEST 9:26 PM CEST
Nautical Twilight 6:36 AM CEST 9:59 PM CEST
Astronomical Twilight 6:01 AM CEST 10:33 PM CEST
Moon 4:48 AM CEST 6:57 PM CEST
Length of Visible Light 14h 17m
Length of Day
13h 22m
Tomorrow will be 2m 13s shorter.
Waning Crescent, 10% of the Moon is Illuminated
Today
Waning Crescent
Aug 25
New
Sep 2
First Quarter
Sep 8
Full
Sep 15
Last Quarter

Yesterday's Extremes

Country Highs Country Lows

Community

WunderPhotos

Upload Photos

1,746,131 photos uploaded!

Nearby

Snow Depth

Not available.

Earthquake Activity

City Distance Mag. Time & Date
No recent earthquake activity has been reported nearby.
Minimum magnitude displayed is 2.5.

Coastal Water Temperatures

Place Temperature
No Stations Reporting

Nearby Weather Stations